sensor_id;sensor_type;location;lat;lon;timestamp;temperature;humidity
9437;DHT22;4757;59.334;18.034;2023-12-20T00:00:10;1.40;99.90
9437;DHT22;4757;59.334;18.034;2023-12-20T00:02:37;1.30;99.90
9437;DHT22;4757;59.334;18.034;2023-12-20T00:05:05;1.40;99.90
9437;DHT22;4757;59.334;18.034;2023-12-20T00:07:33;1.30;99.90
9437;DHT22;4757;59.334;18.034;2023-12-20T00:10:00;1.30;99.90
9437;DHT22;4757;59.334;18.034;2023-12-20T00:12:28;1.30;99.90
9437;DHT22;4757;59.334;18.034;2023-12-20T00:14:55;1.30;99.90
9437;DHT22;4757;59.334;18.034;2023-12-20T00:17:22;1.30;99.90
9437;DHT22;4757;59.334;18.034;2023-12-20T00:19:49;1.30;99.90
9437;DHT22;4757;59.334;18.034;2023-12-20T00:22:16;1.20;99.90
9437;DHT22;4757;59.334;18.034;2023-12-20T00:24:44;1.20;99.90
9437;DHT22;4757;59.334;18.034;2023-12-20T00:27:11;1.20;99.90
9437;DHT22;4757;59.334;18.034;2023-12-20T00:29:38;1.20;99.90
9437;DHT22;4757;59.334;18.034;2023-12-20T00:32:06;1.20;99.90
9437;DHT22;4757;59.334;18.034;2023-12-20T00:34:33;1.20;99.90
9437;DHT22;4757;59.334;18.034;2023-12-20T00:37:00;1.20;99.90
9437;DHT22;4757;59.334;18.034;2023-12-20T00:39:28;1.20;99.90
9437;DHT22;4757;59.334;18.034;2023-12-20T00:41:55;1.10;99.90
9437;DHT22;4757;59.334;18.034;2023-12-20T00:44:22;1.10;99.90
9437;DHT22;4757;59.334;18.034;2023-12-20T00:46:49;1.30;99.90
9437;DHT22;4757;59.334;18.034;2023-12-20T00:49:17;1.10;99.90
9437;DHT22;4757;59.334;18.034;2023-12-20T00:51:45;1.10;99.90
9437;DHT22;4757;59.334;18.034;2023-12-20T00:54:13;1.10;99.90
9437;DHT22;4757;59.334;18.034;2023-12-20T00:56:41;1.10;99.90
9437;DHT22;4757;59.334;18.034;2023-12-20T00:59:09;1.10;99.90
9437;DHT22;4757;59.334;18.034;2023-12-20T01:01:37;1.10;99.90
9437;DHT22;4757;59.334;18.034;2023-12-20T01:04:05;1.00;99.90
9437;DHT22;4757;59.334;18.034;2023-12-20T01:06:33;1.00;99.90
9437;DHT22;4757;59.334;18.034;2023-12-20T01:09:01;1.00;99.90
9437;DHT22;4757;59.334;18.034;2023-12-20T01:11:28;1.00;99.90
9437;DHT22;4757;59.334;18.034;2023-12-20T01:13:56;1.00;99.90
9437;DHT22;4757;59.334;18.034;2023-12-20T01:16:24;0.70;99.90
9437;DHT22;4757;59.334;18.034;2023-12-20T01:18:52;1.00;99.90
9437;DHT22;4757;59.334;18.034;2023-12-20T01:21:19;0.90;99.90
9437;DHT22;4757;59.334;18.034;2023-12-20T01:23:46;0.90;99.90
9437;DHT22;4757;59.334;18.034;2023-12-20T01:26:14;0.90;99.90
9437;DHT22;4757;59.334;18.034;2023-12-20T01:28:42;0.90;99.90
9437;DHT22;4757;59.334;18.034;2023-12-20T01:31:10;0.90;99.90
9437;DHT22;4757;59.334;18.034;2023-12-20T01:33:38;0.80;99.90
9437;DHT22;4757;59.334;18.034;2023-12-20T01:36:05;0.80;99.90
9437;DHT22;4757;59.334;18.034;2023-12-20T01:38:33;0.80;99.90
9437;DHT22;4757;59.334;18.034;2023-12-20T01:41:00;0.80;99.90
9437;DHT22;4757;59.334;18.034;2023-12-20T01:43:27;0.80;99.90
9437;DHT22;4757;59.334;18.034;2023-12-20T01:45:58;0.70;99.90
9437;DHT22;4757;59.334;18.034;2023-12-20T01:48:28;0.70;99.90
9437;DHT22;4757;59.334;18.034;2023-12-20T01:50:56;0.70;99.90
9437;DHT22;4757;59.334;18.034;2023-12-20T01:53:25;0.70;99.90
9437;DHT22;4757;59.334;18.034;2023-12-20T01:55:56;0.60;99.90
9437;DHT22;4757;59.334;18.034;2023-12-20T01:58:29;0.60;99.90
9437;DHT22;4757;59.334;18.034;2023-12-20T02:00:57;0.60;99.90
9437;DHT22;4757;59.334;18.034;2023-12-20T02:03:25;0.60;99.90
9437;DHT22;4757;59.334;18.034;2023-12-20T02:05:53;0.60;99.90
9437;DHT22;4757;59.334;18.034;2023-12-20T02:08:20;0.60;99.90
9437;DHT22;4757;59.334;18.034;2023-12-20T02:10:48;0.50;99.90
9437;DHT22;4757;59.334;18.034;2023-12-20T02:13:16;0.50;99.90
9437;DHT22;4757;59.334;18.034;2023-12-20T02:15:46;0.60;99.90
9437;DHT22;4757;59.334;18.034;2023-12-20T02:18:14;0.50;99.90
9437;DHT22;4757;59.334;18.034;2023-12-20T02:20:43;0.50;99.90
9437;DHT22;4757;59.334;18.034;2023-12-20T02:23:11;0.50;99.90
9437;DHT22;4757;59.334;18.034;2023-12-20T02:25:38;1.10;99.90
9437;DHT22;4757;59.334;18.034;2023-12-20T02:28:06;0.50;99.90
9437;DHT22;4757;59.334;18.034;2023-12-20T02:30:33;0.50;99.90
9437;DHT22;4757;59.334;18.034;2023-12-20T02:33:01;0.50;99.90
9437;DHT22;4757;59.334;18.034;2023-12-20T02:35:30;0.50;99.90
9437;DHT22;4757;59.334;18.034;2023-12-20T02:37:57;0.50;99.90
9437;DHT22;4757;59.334;18.034;2023-12-20T02:40:24;0.50;99.90
9437;DHT22;4757;59.334;18.034;2023-12-20T02:42:52;0.50;99.90
9437;DHT22;4757;59.334;18.034;2023-12-20T02:45:19;0.50;99.90
9437;DHT22;4757;59.334;18.034;2023-12-20T02:47:46;0.50;99.90
9437;DHT22;4757;59.334;18.034;2023-12-20T02:50:14;0.50;99.90
9437;DHT22;4757;59.334;18.034;2023-12-20T02:52:44;0.50;99.90
9437;DHT22;4757;59.334;18.034;2023-12-20T02:55:12;0.50;99.90
9437;DHT22;4757;59.334;18.034;2023-12-20T02:57:39;0.50;99.90
9437;DHT22;4757;59.334;18.034;2023-12-20T03:00:10;0.60;99.90
9437;DHT22;4757;59.334;18.034;2023-12-20T03:02:38;0.60;99.90
9437;DHT22;4757;59.334;18.034;2023-12-20T03:05:05;0.60;99.90
9437;DHT22;4757;59.334;18.034;2023-12-20T03:07:33;0.60;99.90
9437;DHT22;4757;59.334;18.034;2023-12-20T03:10:00;0.60;99.90
9437;DHT22;4757;59.334;18.034;2023-12-20T03:12:45;0.60;99.90
9437;DHT22;4757;59.334;18.034;2023-12-20T03:15:13;0.60;99.90
9437;DHT22;4757;59.334;18.034;2023-12-20T03:17:40;0.60;99.90
9437;DHT22;4757;59.334;18.034;2023-12-20T03:20:08;0.60;99.90
9437;DHT22;4757;59.334;18.034;2023-12-20T03:22:35;0.50;99.90
9437;DHT22;4757;59.334;18.034;2023-12-20T03:25:02;0.60;99.90
9437;DHT22;4757;59.334;18.034;2023-12-20T03:27:30;0.60;99.90
9437;DHT22;4757;59.334;18.034;2023-12-20T03:29:57;0.60;99.90
9437;DHT22;4757;59.334;18.034;2023-12-20T03:32:24;0.60;99.90
9437;DHT22;4757;59.334;18.034;2023-12-20T03:34:52;0.60;99.90
9437;DHT22;4757;59.334;18.034;2023-12-20T03:37:19;0.60;99.90
9437;DHT22;4757;59.334;18.034;2023-12-20T03:39:46;0.60;99.90
9437;DHT22;4757;59.334;18.034;2023-12-20T03:42:13;0.60;99.90
9437;DHT22;4757;59.334;18.034;2023-12-20T03:44:41;0.50;99.90
9437;DHT22;4757;59.334;18.034;2023-12-20T03:47:08;0.50;99.90
9437;DHT22;4757;59.334;18.034;2023-12-20T03:49:35;0.50;99.90
9437;DHT22;4757;59.334;18.034;2023-12-20T03:52:04;0.60;99.90
9437;DHT22;4757;59.334;18.034;2023-12-20T03:54:32;0.50;99.90
9437;DHT22;4757;59.334;18.034;2023-12-20T03:56:59;0.60;99.90
9437;DHT22;4757;59.334;18.034;2023-12-20T03:59:27;0.60;99.90
9437;DHT22;4757;59.334;18.034;2023-12-20T04:01:54;0.60;99.90
9437;DHT22;4757;59.334;18.034;2023-12-20T04:04:22;0.60;99.90
9437;DHT22;4757;59.334;18.034;2023-12-20T04:06:50;0.70;99.90
9437;DHT22;4757;59.334;18.034;2023-12-20T04:09:18;0.70;99.90
9437;DHT22;4757;59.334;18.034;2023-12-20T04:11:46;0.70;99.90
9437;DHT22;4757;59.334;18.034;2023-12-20T04:14:14;0.70;99.90
9437;DHT22;4757;59.334;18.034;2023-12-20T04:16:41;0.70;99.90
9437;DHT22;4757;59.334;18.034;2023-12-20T04:19:13;0.70;99.90
9437;DHT22;4757;59.334;18.034;2023-12-20T04:21:40;0.70;99.90
9437;DHT22;4757;59.334;18.034;2023-12-20T04:24:07;0.70;99.90
9437;DHT22;4757;59.334;18.034;2023-12-20T04:26:35;0.70;99.90
9437;DHT22;4757;59.334;18.034;2023-12-20T04:29:03;0.70;99.90
9437;DHT22;4757;59.334;18.034;2023-12-20T04:31:30;0.70;99.90
9437;DHT22;4757;59.334;18.034;2023-12-20T04:33:57;0.70;99.90
9437;DHT22;4757;59.334;18.034;2023-12-20T04:36:25;0.70;99.90
9437;DHT22;4757;59.334;18.034;2023-12-20T04:38:53;0.60;99.90
9437;DHT22;4757;59.334;18.034;2023-12-20T04:41:21;0.60;99.90
9437;DHT22;4757;59.334;18.034;2023-12-20T04:43:48;0.60;99.90
9437;DHT22;4757;59.334;18.034;2023-12-20T04:46:16;0.50;99.90
9437;DHT22;4757;59.334;18.034;2023-12-20T04:48:43;0.50;99.90
9437;DHT22;4757;59.334;18.034;2023-12-20T04:51:10;0.50;99.90
9437;DHT22;4757;59.334;18.034;2023-12-20T04:53:37;0.50;99.90
9437;DHT22;4757;59.334;18.034;2023-12-20T04:56:05;1.10;99.90
9437;DHT22;4757;59.334;18.034;2023-12-20T04:58:32;0.40;99.90
9437;DHT22;4757;59.334;18.034;2023-12-20T05:00:59;0.40;99.90
9437;DHT22;4757;59.334;18.034;2023-12-20T05:03:27;0.40;99.90
9437;DHT22;4757;59.334;18.034;2023-12-20T05:05:54;0.40;99.90
9437;DHT22;4757;59.334;18.034;2023-12-20T05:08:21;0.50;99.90
9437;DHT22;4757;59.334;18.034;2023-12-20T05:10:49;0.40;99.90
9437;DHT22;4757;59.334;18.034;2023-12-20T05:13:16;0.40;99.90
9437;DHT22;4757;59.334;18.034;2023-12-20T05:15:43;0.40;99.90
9437;DHT22;4757;59.334;18.034;2023-12-20T05:18:10;0.40;99.90
9437;DHT22;4757;59.334;18.034;2023-12-20T05:20:38;0.40;99.90
9437;DHT22;4757;59.334;18.034;2023-12-20T05:23:06;0.40;99.90
9437;DHT22;4757;59.334;18.034;2023-12-20T05:25:33;0.40;99.90
9437;DHT22;4757;59.334;18.034;2023-12-20T05:28:01;0.30;99.90
9437;DHT22;4757;59.334;18.034;2023-12-20T05:30:28;0.30;99.90
9437;DHT22;4757;59.334;18.034;2023-12-20T05:32:56;0.30;99.90
9437;DHT22;4757;59.334;18.034;2023-12-20T05:35:34;0.40;99.90
9437;DHT22;4757;59.334;18.034;2023-12-20T05:38:02;0.40;99.90
9437;DHT22;4757;59.334;18.034;2023-12-20T05:40:29;0.40;99.90
9437;DHT22;4757;59.334;18.034;2023-12-20T05:42:56;0.40;99.90
9437;DHT22;4757;59.334;18.034;2023-12-20T05:45:23;0.40;99.90
9437;DHT22;4757;59.334;18.034;2023-12-20T05:47:53;0.40;99.90
9437;DHT22;4757;59.334;18.034;2023-12-20T05:50:21;0.50;99.90
9437;DHT22;4757;59.334;18.034;2023-12-20T05:52:49;0.50;99.90
9437;DHT22;4757;59.334;18.034;2023-12-20T05:55:16;0.50;99.90
9437;DHT22;4757;59.334;18.034;2023-12-20T05:57:44;0.50;99.90
9437;DHT22;4757;59.334;18.034;2023-12-20T06:00:13;0.50;99.90
9437;DHT22;4757;59.334;18.034;2023-12-20T06:02:40;0.40;99.90
9437;DHT22;4757;59.334;18.034;2023-12-20T06:05:08;0.40;99.90
9437;DHT22;4757;59.334;18.034;2023-12-20T06:07:36;0.50;99.90
9437;DHT22;4757;59.334;18.034;2023-12-20T06:10:05;0.40;99.90
9437;DHT22;4757;59.334;18.034;2023-12-20T06:12:33;0.50;99.90
9437;DHT22;4757;59.334;18.034;2023-12-20T06:15:03;0.50;99.90
9437;DHT22;4757;59.334;18.034;2023-12-20T06:17:31;0.60;99.90
9437;DHT22;4757;59.334;18.034;2023-12-20T06:20:04;0.60;99.90
9437;DHT22;4757;59.334;18.034;2023-12-20T06:22:35;0.60;99.90
9437;DHT22;4757;59.334;18.034;2023-12-20T06:25:05;1.30;99.90
9437;DHT22;4757;59.334;18.034;2023-12-20T06:27:42;0.60;99.90
9437;DHT22;4757;59.334;18.034;2023-12-20T06:30:10;0.60;99.90
9437;DHT22;4757;59.334;18.034;2023-12-20T06:32:37;0.60;99.90
9437;DHT22;4757;59.334;18.034;2023-12-20T06:35:13;0.50;99.90
9437;DHT22;4757;59.334;18.034;2023-12-20T06:37:41;0.60;99.90
9437;DHT22;4757;59.334;18.034;2023-12-20T06:40:10;0.70;99.90
9437;DHT22;4757;59.334;18.034;2023-12-20T06:42:44;0.80;99.90
9437;DHT22;4757;59.334;18.034;2023-12-20T06:45:25;0.70;99.90
9437;DHT22;4757;59.334;18.034;2023-12-20T06:47:53;0.80;99.90
9437;DHT22;4757;59.334;18.034;2023-12-20T06:50:21;0.90;99.90
9437;DHT22;4757;59.334;18.034;2023-12-20T06:52:49;0.90;99.90
9437;DHT22;4757;59.334;18.034;2023-12-20T06:55:17;0.80;99.90
9437;DHT22;4757;59.334;18.034;2023-12-20T06:57:44;0.80;99.90
9437;DHT22;4757;59.334;18.034;2023-12-20T07:00:13;0.80;99.90
9437;DHT22;4757;59.334;18.034;2023-12-20T07:02:41;0.90;99.90
9437;DHT22;4757;59.334;18.034;2023-12-20T07:05:08;0.90;99.90
9437;DHT22;4757;59.334;18.034;2023-12-20T07:07:36;0.80;99.90
9437;DHT22;4757;59.334;18.034;2023-12-20T07:10:05;0.70;99.90
9437;DHT22;4757;59.334;18.034;2023-12-20T07:12:32;0.90;99.90
9437;DHT22;4757;59.334;18.034;2023-12-20T07:15:13;0.90;99.90
9437;DHT22;4757;59.334;18.034;2023-12-20T07:17:41;1.00;99.90
9437;DHT22;4757;59.334;18.034;2023-12-20T07:20:08;1.00;99.90
9437;DHT22;4757;59.334;18.034;2023-12-20T07:22:38;0.90;99.90
9437;DHT22;4757;59.334;18.034;2023-12-20T07:25:07;1.00;99.90
9437;DHT22;4757;59.334;18.034;2023-12-20T07:27:34;1.00;99.90
9437;DHT22;4757;59.334;18.034;2023-12-20T07:30:13;1.00;99.90
9437;DHT22;4757;59.334;18.034;2023-12-20T07:32:43;1.10;99.90
9437;DHT22;4757;59.334;18.034;2023-12-20T07:35:10;1.10;99.90
9437;DHT22;4757;59.334;18.034;2023-12-20T07:37:40;0.00;99.90
9437;DHT22;4757;59.334;18.034;2023-12-20T07:40:21;1.20;99.90
9437;DHT22;4757;59.334;18.034;2023-12-20T07:42:50;1.20;99.90
9437;DHT22;4757;59.334;18.034;2023-12-20T07:45:17;1.10;99.90
9437;DHT22;4757;59.334;18.034;2023-12-20T07:47:45;1.20;99.90
9437;DHT22;4757;59.334;18.034;2023-12-20T07:50:15;1.20;99.90
9437;DHT22;4757;59.334;18.034;2023-12-20T07:52:43;1.10;99.90
9437;DHT22;4757;59.334;18.034;2023-12-20T07:55:10;1.20;99.90
9437;DHT22;4757;59.334;18.034;2023-12-20T07:57:40;1.20;99.90
9437;DHT22;4757;59.334;18.034;2023-12-20T08:00:09;1.20;99.90
9437;DHT22;4757;59.334;18.034;2023-12-20T08:02:36;1.10;99.90
9437;DHT22;4757;59.334;18.034;2023-12-20T08:05:06;1.30;99.90
9437;DHT22;4757;59.334;18.034;2023-12-20T08:07:34;1.30;99.90
9437;DHT22;4757;59.334;18.034;2023-12-20T08:10:03;1.30;99.90
9437;DHT22;4757;59.334;18.034;2023-12-20T08:12:30;1.30;99.90
9437;DHT22;4757;59.334;18.034;2023-12-20T08:15:05;1.40;99.90
9437;DHT22;4757;59.334;18.034;2023-12-20T08:17:32;1.30;99.90
9437;DHT22;4757;59.334;18.034;2023-12-20T08:20:00;1.30;99.90
9437;DHT22;4757;59.334;18.034;2023-12-20T08:22:31;1.30;99.90
9437;DHT22;4757;59.334;18.034;2023-12-20T08:24:58;1.30;99.90
9437;DHT22;4757;59.334;18.034;2023-12-20T08:27:27;1.20;99.90
9437;DHT22;4757;59.334;18.034;2023-12-20T08:29:54;1.40;99.90
9437;DHT22;4757;59.334;18.034;2023-12-20T08:32:21;1.30;99.90
9437;DHT22;4757;59.334;18.034;2023-12-20T08:34:48;1.40;99.90
9437;DHT22;4757;59.334;18.034;2023-12-20T08:37:16;1.40;99.90
9437;DHT22;4757;59.334;18.034;2023-12-20T08:39:44;1.40;99.90
9437;DHT22;4757;59.334;18.034;2023-12-20T08:42:12;1.40;99.90
9437;DHT22;4757;59.334;18.034;2023-12-20T08:44:39;1.40;99.90
9437;DHT22;4757;59.334;18.034;2023-12-20T08:47:06;1.40;99.90
9437;DHT22;4757;59.334;18.034;2023-12-20T08:49:34;1.50;99.90
9437;DHT22;4757;59.334;18.034;2023-12-20T08:52:01;1.50;99.90
9437;DHT22;4757;59.334;18.034;2023-12-20T08:54:29;1.50;99.90
9437;DHT22;4757;59.334;18.034;2023-12-20T08:56:56;1.50;99.90
9437;DHT22;4757;59.334;18.034;2023-12-20T08:59:23;1.60;99.90
9437;DHT22;4757;59.334;18.034;2023-12-20T09:01:50;1.70;99.90
9437;DHT22;4757;59.334;18.034;2023-12-20T09:04:21;1.70;99.90
9437;DHT22;4757;59.334;18.034;2023-12-20T09:06:49;1.70;99.90
9437;DHT22;4757;59.334;18.034;2023-12-20T09:09:16;1.70;99.90
9437;DHT22;4757;59.334;18.034;2023-12-20T09:11:43;1.80;99.90
9437;DHT22;4757;59.334;18.034;2023-12-20T09:14:13;1.80;99.90
9437;DHT22;4757;59.334;18.034;2023-12-20T09:16:40;1.90;99.90
9437;DHT22;4757;59.334;18.034;2023-12-20T09:19:08;1.80;99.90
9437;DHT22;4757;59.334;18.034;2023-12-20T09:21:35;1.80;99.90
9437;DHT22;4757;59.334;18.034;2023-12-20T09:24:02;1.90;99.90
9437;DHT22;4757;59.334;18.034;2023-12-20T09:26:30;1.80;99.90
9437;DHT22;4757;59.334;18.034;2023-12-20T09:28:57;1.90;99.90
9437;DHT22;4757;59.334;18.034;2023-12-20T09:31:24;2.00;99.90
9437;DHT22;4757;59.334;18.034;2023-12-20T09:33:51;2.00;99.90
9437;DHT22;4757;59.334;18.034;2023-12-20T09:36:19;2.10;99.90
9437;DHT22;4757;59.334;18.034;2023-12-20T09:38:46;2.10;99.90
9437;DHT22;4757;59.334;18.034;2023-12-20T09:41:13;1.90;99.90
9437;DHT22;4757;59.334;18.034;2023-12-20T09:43:42;2.00;99.90
9437;DHT22;4757;59.334;18.034;2023-12-20T09:46:12;2.20;99.90
9437;DHT22;4757;59.334;18.034;2023-12-20T09:48:43;2.10;99.90
9437;DHT22;4757;59.334;18.034;2023-12-20T09:51:12;2.20;99.90
9437;DHT22;4757;59.334;18.034;2023-12-20T09:53:40;2.20;99.90
9437;DHT22;4757;59.334;18.034;2023-12-20T09:56:08;2.20;99.90
9437;DHT22;4757;59.334;18.034;2023-12-20T09:58:38;2.20;99.90
9437;DHT22;4757;59.334;18.034;2023-12-20T10:01:07;2.30;99.90
9437;DHT22;4757;59.334;18.034;2023-12-20T10:03:35;2.30;99.90
9437;DHT22;4757;59.334;18.034;2023-12-20T10:06:03;2.40;99.90
9437;DHT22;4757;59.334;18.034;2023-12-20T10:08:30;2.40;99.90
9437;DHT22;4757;59.334;18.034;2023-12-20T10:10:59;2.40;99.90
9437;DHT22;4757;59.334;18.034;2023-12-20T10:13:29;2.40;99.90
9437;DHT22;4757;59.334;18.034;2023-12-20T10:15:57;2.50;99.90
9437;DHT22;4757;59.334;18.034;2023-12-20T10:18:24;2.40;99.90
9437;DHT22;4757;59.334;18.034;2023-12-20T10:21:06;2.50;99.90
9437;DHT22;4757;59.334;18.034;2023-12-20T10:23:33;2.50;99.90
9437;DHT22;4757;59.334;18.034;2023-12-20T10:26:01;2.50;99.90
9437;DHT22;4757;59.334;18.034;2023-12-20T10:28:33;2.50;99.90
9437;DHT22;4757;59.334;18.034;2023-12-20T10:31:02;2.50;99.90
9437;DHT22;4757;59.334;18.034;2023-12-20T10:33:30;2.50;99.90
9437;DHT22;4757;59.334;18.034;2023-12-20T10:36:01;2.50;99.90
9437;DHT22;4757;59.334;18.034;2023-12-20T10:38:30;2.50;99.90
9437;DHT22;4757;59.334;18.034;2023-12-20T10:40:58;2.40;99.90
9437;DHT22;4757;59.334;18.034;2023-12-20T10:43:28;2.60;99.90
9437;DHT22;4757;59.334;18.034;2023-12-20T10:45:58;2.50;99.90
9437;DHT22;4757;59.334;18.034;2023-12-20T10:48:26;2.60;99.90
9437;DHT22;4757;59.334;18.034;2023-12-20T10:50:58;2.60;99.90
9437;DHT22;4757;59.334;18.034;2023-12-20T10:53:25;2.50;99.90
9437;DHT22;4757;59.334;18.034;2023-12-20T10:55:55;2.50;99.90
9437;DHT22;4757;59.334;18.034;2023-12-20T10:58:26;2.40;99.90
9437;DHT22;4757;59.334;18.034;2023-12-20T11:01:00;2.40;99.90
9437;DHT22;4757;59.334;18.034;2023-12-20T11:03:34;2.40;99.90
9437;DHT22;4757;59.334;18.034;2023-12-20T11:06:09;2.40;99.90
9437;DHT22;4757;59.334;18.034;2023-12-20T11:11:59;2.20;99.90
9437;DHT22;4757;59.334;18.034;2023-12-20T11:14:47;2.20;99.90
9437;DHT22;4757;59.334;18.034;2023-12-20T11:17:15;2.30;99.90
9437;DHT22;4757;59.334;18.034;2023-12-20T11:22:26;2.20;99.90
9437;DHT22;4757;59.334;18.034;2023-12-20T11:25:00;2.20;99.90
9437;DHT22;4757;59.334;18.034;2023-12-20T11:27:30;2.10;99.90
9437;DHT22;4757;59.334;18.034;2023-12-20T11:29:59;2.20;99.90
9437;DHT22;4757;59.334;18.034;2023-12-20T11:32:28;2.10;99.90
9437;DHT22;4757;59.334;18.034;2023-12-20T11:34:59;2.20;99.90
9437;DHT22;4757;59.334;18.034;2023-12-20T11:37:31;2.10;99.90
9437;DHT22;4757;59.334;18.034;2023-12-20T11:40:11;2.10;99.90
9437;DHT22;4757;59.334;18.034;2023-12-20T11:42:41;2.10;99.90
9437;DHT22;4757;59.334;18.034;2023-12-20T11:45:21;2.10;99.90
9437;DHT22;4757;59.334;18.034;2023-12-20T11:47:50;2.10;99.90
9437;DHT22;4757;59.334;18.034;2023-12-20T11:50:20;2.10;99.90
9437;DHT22;4757;59.334;18.034;2023-12-20T11:52:49;2.00;99.90
9437;DHT22;4757;59.334;18.034;2023-12-20T11:55:16;2.00;99.90
9437;DHT22;4757;59.334;18.034;2023-12-20T11:57:44;2.00;99.90
9437;DHT22;4757;59.334;18.034;2023-12-20T12:00:15;2.10;99.90
9437;DHT22;4757;59.334;18.034;2023-12-20T12:02:55;2.10;99.90
9437;DHT22;4757;59.334;18.034;2023-12-20T12:05:23;2.10;99.90
9437;DHT22;4757;59.334;18.034;2023-12-20T12:07:53;2.10;99.90
9437;DHT22;4757;59.334;18.034;2023-12-20T12:10:22;2.10;99.90
9437;DHT22;4757;59.334;18.034;2023-12-20T12:12:50;2.10;99.90
9437;DHT22;4757;59.334;18.034;2023-12-20T12:15:17;2.10;99.90
9437;DHT22;4757;59.334;18.034;2023-12-20T12:17:53;2.10;99.90
9437;DHT22;4757;59.334;18.034;2023-12-20T12:20:23;2.00;99.90
9437;DHT22;4757;59.334;18.034;2023-12-20T12:23:04;1.90;99.90
9437;DHT22;4757;59.334;18.034;2023-12-20T12:25:34;1.90;99.90
9437;DHT22;4757;59.334;18.034;2023-12-20T12:28:06;1.90;99.90
9437;DHT22;4757;59.334;18.034;2023-12-20T12:30:34;1.90;99.90
9437;DHT22;4757;59.334;18.034;2023-12-20T12:33:12;1.70;99.90
9437;DHT22;4757;59.334;18.034;2023-12-20T12:35:40;1.70;99.90
9437;DHT22;4757;59.334;18.034;2023-12-20T12:38:08;1.60;99.90
9437;DHT22;4757;59.334;18.034;2023-12-20T12:40:36;1.50;99.90
9437;DHT22;4757;59.334;18.034;2023-12-20T12:43:03;1.60;99.90
9437;DHT22;4757;59.334;18.034;2023-12-20T12:45:31;1.40;99.90
9437;DHT22;4757;59.334;18.034;2023-12-20T12:47:59;1.50;99.90
9437;DHT22;4757;59.334;18.034;2023-12-20T12:50:26;1.50;99.90
9437;DHT22;4757;59.334;18.034;2023-12-20T12:52:55;1.40;99.90
9437;DHT22;4757;59.334;18.034;2023-12-20T12:55:23;1.40;99.90
9437;DHT22;4757;59.334;18.034;2023-12-20T12:57:50;1.30;99.90
9437;DHT22;4757;59.334;18.034;2023-12-20T13:00:18;1.30;99.90
9437;DHT22;4757;59.334;18.034;2023-12-20T13:02:46;1.30;99.90
9437;DHT22;4757;59.334;18.034;2023-12-20T13:05:13;1.30;99.90
9437;DHT22;4757;59.334;18.034;2023-12-20T13:07:41;1.40;99.90
9437;DHT22;4757;59.334;18.034;2023-12-20T13:10:27;1.50;99.90
9437;DHT22;4757;59.334;18.034;2023-12-20T13:12:54;1.50;99.90
9437;DHT22;4757;59.334;18.034;2023-12-20T13:15:22;1.60;99.90
9437;DHT22;4757;59.334;18.034;2023-12-20T13:17:49;1.60;99.90
9437;DHT22;4757;59.334;18.034;2023-12-20T13:20:18;1.60;99.90
9437;DHT22;4757;59.334;18.034;2023-12-20T13:22:46;1.60;99.90
9437;DHT22;4757;59.334;18.034;2023-12-20T13:25:13;1.80;99.90
9437;DHT22;4757;59.334;18.034;2023-12-20T13:27:41;1.70;99.90
9437;DHT22;4757;59.334;18.034;2023-12-20T13:30:09;1.70;99.90
9437;DHT22;4757;59.334;18.034;2023-12-20T13:32:37;1.70;99.90
9437;DHT22;4757;59.334;18.034;2023-12-20T13:35:04;1.80;99.90
9437;DHT22;4757;59.334;18.034;2023-12-20T13:37:34;1.90;99.90
9437;DHT22;4757;59.334;18.034;2023-12-20T13:40:02;1.90;99.90
9437;DHT22;4757;59.334;18.034;2023-12-20T13:42:31;2.00;99.90
9437;DHT22;4757;59.334;18.034;2023-12-20T13:44:59;2.00;99.90
9437;DHT22;4757;59.334;18.034;2023-12-20T13:47:30;2.10;99.90
9437;DHT22;4757;59.334;18.034;2023-12-20T13:50:11;2.00;99.90
9437;DHT22;4757;59.334;18.034;2023-12-20T13:52:39;2.00;99.90
9437;DHT22;4757;59.334;18.034;2023-12-20T13:55:12;2.10;99.90
9437;DHT22;4757;59.334;18.034;2023-12-20T13:57:59;2.10;99.90
9437;DHT22;4757;59.334;18.034;2023-12-20T14:00:28;2.10;99.90
9437;DHT22;4757;59.334;18.034;2023-12-20T14:03:04;1.30;99.90
9437;DHT22;4757;59.334;18.034;2023-12-20T14:05:31;2.20;99.90
9437;DHT22;4757;59.334;18.034;2023-12-20T14:08:02;2.20;99.90
9437;DHT22;4757;59.334;18.034;2023-12-20T14:10:29;2.30;99.90
9437;DHT22;4757;59.334;18.034;2023-12-20T14:12:57;2.30;99.90
9437;DHT22;4757;59.334;18.034;2023-12-20T14:15:24;2.30;99.90
9437;DHT22;4757;59.334;18.034;2023-12-20T14:17:53;2.30;99.90
9437;DHT22;4757;59.334;18.034;2023-12-20T14:20:20;2.30;99.90
9437;DHT22;4757;59.334;18.034;2023-12-20T14:22:48;2.30;99.90
9437;DHT22;4757;59.334;18.034;2023-12-20T14:25:15;2.40;99.90
9437;DHT22;4757;59.334;18.034;2023-12-20T14:27:43;2.40;99.90
9437;DHT22;4757;59.334;18.034;2023-12-20T14:30:12;2.40;99.90
9437;DHT22;4757;59.334;18.034;2023-12-20T14:32:51;1.50;99.90
9437;DHT22;4757;59.334;18.034;2023-12-20T14:35:19;2.40;99.90
9437;DHT22;4757;59.334;18.034;2023-12-20T14:37:48;2.50;99.90
9437;DHT22;4757;59.334;18.034;2023-12-20T14:40:30;2.40;99.90
9437;DHT22;4757;59.334;18.034;2023-12-20T14:43:10;2.50;99.90
9437;DHT22;4757;59.334;18.034;2023-12-20T14:45:52;2.50;99.90
9437;DHT22;4757;59.334;18.034;2023-12-20T14:48:19;2.50;99.90
9437;DHT22;4757;59.334;18.034;2023-12-20T14:50:48;2.60;99.90
9437;DHT22;4757;59.334;18.034;2023-12-20T14:53:18;2.60;99.90
9437;DHT22;4757;59.334;18.034;2023-12-20T14:55:49;2.60;99.90
9437;DHT22;4757;59.334;18.034;2023-12-20T14:58:18;2.60;99.90
9437;DHT22;4757;59.334;18.034;2023-12-20T15:00:53;2.70;99.90
9437;DHT22;4757;59.334;18.034;2023-12-20T15:03:34;2.70;99.90
9437;DHT22;4757;59.334;18.034;2023-12-20T15:06:27;2.70;99.90
9437;DHT22;4757;59.334;18.034;2023-12-20T15:09:08;2.70;99.90
9437;DHT22;4757;59.334;18.034;2023-12-20T15:11:53;2.80;99.90
9437;DHT22;4757;59.334;18.034;2023-12-20T15:14:34;2.80;99.90
9437;DHT22;4757;59.334;18.034;2023-12-20T15:17:23;2.80;99.90
9437;DHT22;4757;59.334;18.034;2023-12-20T15:20:17;2.90;99.90
9437;DHT22;4757;59.334;18.034;2023-12-20T15:23:08;2.80;99.90
9437;DHT22;4757;59.334;18.034;2023-12-20T15:25:38;2.70;99.90
9437;DHT22;4757;59.334;18.034;2023-12-20T15:28:25;2.80;99.90
9437;DHT22;4757;59.334;18.034;2023-12-20T15:31:09;2.70;99.90
9437;DHT22;4757;59.334;18.034;2023-12-20T15:33:50;2.80;99.90
9437;DHT22;4757;59.334;18.034;2023-12-20T15:36:31;2.90;99.90
9437;DHT22;4757;59.334;18.034;2023-12-20T15:39:12;2.90;99.90
9437;DHT22;4757;59.334;18.034;2023-12-20T15:41:55;2.90;99.90
9437;DHT22;4757;59.334;18.034;2023-12-20T15:44:36;2.90;99.90
9437;DHT22;4757;59.334;18.034;2023-12-20T15:47:20;3.00;99.90
9437;DHT22;4757;59.334;18.034;2023-12-20T15:50:01;2.90;99.90
9437;DHT22;4757;59.334;18.034;2023-12-20T15:52:42;2.90;99.90
9437;DHT22;4757;59.334;18.034;2023-12-20T15:55:36;2.90;99.90
9437;DHT22;4757;59.334;18.034;2023-12-20T15:58:18;2.90;99.90
9437;DHT22;4757;59.334;18.034;2023-12-20T16:11:54;3.00;99.90
9437;DHT22;4757;59.334;18.034;2023-12-20T16:14:35;3.10;99.90
9437;DHT22;4757;59.334;18.034;2023-12-20T16:17:30;3.00;99.90
9437;DHT22;4757;59.334;18.034;2023-12-20T16:20:26;3.00;99.90
9437;DHT22;4757;59.334;18.034;2023-12-20T16:23:07;3.00;99.90
9437;DHT22;4757;59.334;18.034;2023-12-20T16:25:48;2.90;99.90
9437;DHT22;4757;59.334;18.034;2023-12-20T16:28:30;2.90;99.90
9437;DHT22;4757;59.334;18.034;2023-12-20T16:31:16;2.90;99.90
9437;DHT22;4757;59.334;18.034;2023-12-20T16:33:58;2.90;99.90
9437;DHT22;4757;59.334;18.034;2023-12-20T16:36:58;2.90;99.90